Pilar Observatorio, Argentina
Current Conditions -  °F | °C
As of 6:00 AM on Monday 22 Dec 2014 (Local Time) from SACO Reporting Station
Clear Clear  
Wind Chill: 40°   Ceiling: Unl
Heat Index: 43°   Visibility: 6mi
Dew Point: 36°   Wind: 5mph
Humidity: 76%   Direction: 320°NW
Pressure: 30.15"   Gusts: NA
Location:  31.67°S, 63.88°W
Report Text: SACO 220900Z 32004KT CAVOK 06/02 Q1021
Loading
Personal Weather Stations






























Interactive Weather Map New forecast layout! Learn more

10-Day Weather Forecast

Advertisements
Track Severe Weather on mobile